Time;durP1;ratioP1;P1;durP2;ratioP2;P2;SDS_P1;SDS_P2;PMS_P1;PMS_P2;Temp;Humidity;BMP_temperature;BMP_pressure;BME280_temperature;BME280_humidity;BME280_pressure;Samples;Min_cycle;Max_cycle;Signal;HPM_P1;HPM_P2
2023/05/20 00:02:12;;;;;;;10.15;5.13;;;11.30;99.90;;;;;;5012764;28;20116;-88
2023/05/20 00:04:40;;;;;;;8.35;4.88;;;11.30;99.90;;;;;;5042759;28;20022;-87
2023/05/20 00:07:06;;;;;;;9.82;5.88;;;11.20;99.90;;;;;;5022960;28;20091;-88
2023/05/20 00:09:32;;;;;;;10.90;5.90;;;11.00;99.90;;;;;;5032619;28;20034;-87
2023/05/20 00:11:58;;;;;;;10.90;5.50;;;11.00;99.90;;;;;;5030075;28;20057;-88
2023/05/20 00:14:23;;;;;;;9.45;5.20;;;10.90;99.90;;;;;;5024055;28;20026;-87
2023/05/20 00:16:49;;;;;;;8.10;5.22;;;10.80;99.90;;;;;;5028808;28;20036;-87
2023/05/20 00:19:15;;;;;;;11.25;5.75;;;10.80;99.90;;;;;;5033032;28;20041;-87
2023/05/20 00:21:41;;;;;;;10.63;6.00;;;10.70;99.90;;;;;;5031814;28;20493;-88
2023/05/20 00:24:06;;;;;;;8.60;5.38;;;10.70;99.90;;;;;;5005853;28;20034;-88
2023/05/20 00:26:32;;;;;;;13.45;5.97;;;10.60;99.90;;;;;;5026576;28;20025;-88
2023/05/20 00:28:58;;;;;;;12.43;6.30;;;10.60;99.90;;;;;;5041045;28;20013;-87
2023/05/20 00:31:24;;;;;;;11.40;5.28;;;10.60;99.90;;;;;;5018885;28;20026;-87
2023/05/20 00:34:11;;;;;;;10.27;5.85;;;10.60;99.90;;;;;;5002110;28;20064;-88
2023/05/20 00:36:37;;;;;;;9.57;6.00;;;10.50;99.90;;;;;;5038291;28;20029;-87
2023/05/20 00:39:03;;;;;;;9.43;5.82;;;10.50;99.90;;;;;;5035524;28;20030;-88
2023/05/20 00:41:29;;;;;;;11.60;6.53;;;10.40;99.90;;;;;;5023874;28;20109;-88
2023/05/20 00:43:55;;;;;;;10.05;6.38;;;10.40;99.90;;;;;;5017345;28;20018;-89
2023/05/20 00:46:26;;;;;;;8.55;5.95;;;10.40;99.90;;;;;;5016148;28;20018;-87
2023/05/20 00:48:52;;;;;;;9.48;6.00;;;10.30;99.90;;;;;;5029802;28;20026;-88
2023/05/20 00:51:18;;;;;;;10.57;6.00;;;10.30;99.90;;;;;;5034193;28;20121;-87
2023/05/20 00:53:44;;;;;;;;;;;10.30;99.90;;;;;;5045168;28;20356;-88
2023/05/20 00:56:28;;;;;;;;;;;10.30;99.90;;;;;;5035851;28;19913;-88
2023/05/20 00:59:00;;;;;;;;;;;10.20;99.90;;;;;;5026360;28;19913;-87
2023/05/20 01:01:26;;;;;;;;;;;10.20;99.90;;;;;;5020812;28;20004;-88
2023/05/20 01:03:55;;;;;;;;;;;10.20;99.90;;;;;;5037678;28;19959;-88
2023/05/20 01:06:20;;;;;;;;;;;10.10;99.90;;;;;;5017986;28;19917;-88
2023/05/20 01:08:46;;;;;;;;;;;10.10;99.90;;;;;;5032199;28;19920;-88
2023/05/20 01:11:15;;;;;;;;;;;10.10;99.90;;;;;;5033575;28;20118;-87
2023/05/20 01:13:53;;;;;;;;;;;10.10;99.90;;;;;;5038118;28;19924;-87
2023/05/20 01:16:19;;;;;;;;;;;10.00;99.90;;;;;;5042845;28;20026;-87
2023/05/20 01:18:47;;;;;;;;;;;9.90;99.90;;;;;;5019091;28;19920;-86
2023/05/20 01:21:14;;;;;;;;;;;9.90;99.90;;;;;;5034623;28;19910;-87
2023/05/20 01:23:40;;;;;;;;;;;10.00;99.90;;;;;;5030539;28;19909;-87
2023/05/20 01:26:07;;;;;;;;;;;10.10;99.90;;;;;;5024523;28;20387;-88
2023/05/20 01:28:34;;;;;;;;;;;10.10;99.90;;;;;;5019676;28;19914;-88
2023/05/20 01:31:00;;;;;;;;;;;10.30;99.90;;;;;;5024215;28;19913;-88
2023/05/20 01:33:27;;;;;;;;;;;10.40;99.90;;;;;;5036297;28;19909;-88
2023/05/20 01:35:54;;;;;;;;;;;10.50;99.90;;;;;;5036569;28;19913;-88
2023/05/20 01:38:20;;;;;;;;;;;10.60;99.90;;;;;;5044018;28;19933;-88
2023/05/20 01:40:46;;;;;;;;;;;10.60;99.90;;;;;;5018689;28;20300;-87
2023/05/20 01:43:12;;;;;;;;;;;10.70;99.90;;;;;;5025161;28;19909;-88
2023/05/20 01:45:42;;;;;;;;;;;10.70;99.90;;;;;;5021001;28;19909;-88
2023/05/20 01:48:10;;;;;;;;;;;10.80;99.90;;;;;;5042719;28;19936;-88
2023/05/20 01:50:36;;;;;;;;;;;10.80;99.90;;;;;;5027283;28;20412;-89
2023/05/20 01:53:02;;;;;;;;;;;10.80;99.90;;;;;;5051944;28;19996;-89
2023/05/20 01:55:27;;;;;;;;;;;10.90;99.90;;;;;;5017130;28;20451;-89
2023/05/20 01:57:53;;;;;;;;;;;11.00;99.90;;;;;;5031325;28;19993;-87
2023/05/20 02:00:19;;;;;;;;;;;11.00;99.90;;;;;;5034782;28;19909;-88
2023/05/20 02:02:45;;;;;;;;;;;11.00;99.90;;;;;;5040579;28;19920;-87
2023/05/20 02:05:12;;;;;;;;;;;11.00;99.90;;;;;;5049519;28;20237;-88
2023/05/20 02:07:37;;;;;;;;;;;11.10;99.90;;;;;;5035876;28;19908;-87
2023/05/20 02:10:03;;;;;;;;;;;11.10;99.90;;;;;;5035707;28;19971;-88
2023/05/20 02:12:29;;;;;;;;;;;11.10;99.90;;;;;;5032735;28;19917;-87
2023/05/20 02:14:55;;;;;;;;;;;11.10;99.90;;;;;;5009845;28;19910;-88
2023/05/20 02:17:21;;;;;;;;;;;11.10;99.90;;;;;;5031644;28;20272;-87
2023/05/20 02:19:46;;;;;;;;;;;11.10;99.90;;;;;;5014004;28;19955;-87
2023/05/20 02:22:12;;;;;;;;;;;11.10;99.90;;;;;;5033383;28;19909;-88
2023/05/20 02:24:38;;;;;;;;;;;11.10;99.90;;;;;;5024451;28;20268;-87
2023/05/20 02:27:05;;;;;;;;;;;11.10;99.90;;;;;;5035571;28;19909;-88
2023/05/20 02:29:32;;;;;;;;;;;11.10;99.90;;;;;;5027911;28;19909;-87
2023/05/20 02:31:58;;;;;;;;;;;11.10;99.90;;;;;;5034997;28;19915;-88
2023/05/20 02:34:24;;;;;;;;;;;11.10;99.90;;;;;;5035318;28;19908;-88
2023/05/20 02:36:51;;;;;;;;;;;11.10;99.90;;;;;;5021315;28;19913;-87
2023/05/20 02:39:17;;;;;;;;;;;11.10;99.90;;;;;;5024327;28;19914;-87
2023/05/20 02:41:43;;;;;;;;;;;11.10;99.90;;;;;;5038788;28;19977;-87
2023/05/20 02:44:09;;;;;;;;;;;11.20;99.90;;;;;;5023585;28;19909;-88
2023/05/20 02:46:34;;;;;;;;;;;11.20;99.90;;;;;;5044478;28;19932;-87
2023/05/20 02:49:00;;;;;;;;;;;11.20;99.90;;;;;;5021231;28;19921;-87
2023/05/20 02:51:41;;;;;;;;;;;11.20;99.90;;;;;;5029669;28;19920;-87
2023/05/20 02:54:07;;;;;;;;;;;11.20;99.90;;;;;;5044012;28;19909;-88
2023/05/20 02:56:33;;;;;;;;;;;11.20;99.90;;;;;;5034930;28;20387;-87
2023/05/20 02:59:00;;;;;;;;;;;11.20;99.90;;;;;;5034261;28;20265;-87
2023/05/20 03:01:41;;;;;;;;;;;11.20;99.90;;;;;;5043463;28;19921;-88
2023/05/20 03:04:07;;;;;;;;;;;11.20;99.90;;;;;;5026747;28;19909;-88
2023/05/20 03:06:33;;;;;;;;;;;11.20;99.90;;;;;;5015019;28;19909;-87
2023/05/20 03:08:59;;;;;;;;;;;11.20;99.90;;;;;;5031872;28;20047;-88
2023/05/20 03:11:25;;;;;;;;;;;11.10;99.90;;;;;;5039977;28;20007;-87
2023/05/20 03:13:50;;;;;;;;;;;11.10;99.90;;;;;;5021914;28;19909;-86
2023/05/20 03:16:17;;;;;;;;;;;11.10;99.90;;;;;;5023738;28;19916;-87
2023/05/20 03:18:45;;;;;;;;;;;11.10;99.90;;;;;;5037235;28;19960;-87
2023/05/20 03:21:10;;;;;;;;;;;11.10;99.90;;;;;;5035432;28;19913;-88
2023/05/20 03:23:36;;;;;;;;;;;11.20;99.90;;;;;;5036121;28;19916;-87
2023/05/20 03:26:02;;;;;;;;;;;11.20;99.90;;;;;;5018106;28;19944;-87
2023/05/20 03:28:28;;;;;;;;;;;11.20;99.90;;;;;;5024532;28;19959;-87
2023/05/20 03:30:53;;;;;;;;;;;11.20;99.90;;;;;;5011384;28;20028;-88
2023/05/20 03:33:26;;;;;;;;;;;11.20;99.90;;;;;;5040987;28;20269;-87
2023/05/20 03:35:52;;;;;;;;;;;11.20;99.90;;;;;;5033713;28;20363;-85
2023/05/20 03:38:33;;;;;;;;;;;11.10;99.90;;;;;;5034381;28;19960;-84
2023/05/20 03:40:59;;;;;;;;;;;11.10;99.90;;;;;;5038505;28;20017;-84
2023/05/20 03:43:26;;;;;;;;;;;11.20;99.90;;;;;;5027440;28;19952;-85
2023/05/20 03:45:51;;;;;;;;;;;11.20;99.90;;;;;;5024849;28;20384;-84
2023/05/20 03:48:17;;;;;;;;;;;11.10;99.90;;;;;;5028952;28;20003;-84
2023/05/20 03:50:43;;;;;;;;;;;11.20;99.90;;;;;;5018225;28;19920;-85
2023/05/20 03:53:08;;;;;;;;;;;11.10;99.90;;;;;;5030717;28;20365;-84
2023/05/20 03:59:06;;;;;;;;;;;11.20;99.90;;;;;;5031858;28;19959;-84
2023/05/20 04:01:36;;;;;;;;;;;11.20;99.90;;;;;;5038147;28;19909;-85
2023/05/20 04:04:01;;;;;;;;;;;11.20;99.90;;;;;;5033275;28;20378;-85
2023/05/20 04:06:27;;;;;;;;;;;11.20;99.90;;;;;;5028734;28;19963;-85
2023/05/20 04:08:55;;;;;;;;;;;11.20;99.90;;;;;;5018215;28;19924;-85
2023/05/20 04:11:21;;;;;;;;;;;11.20;99.90;;;;;;5039134;28;19913;-85
2023/05/20 04:13:46;;;;;;;;;;;11.20;99.90;;;;;;5019911;28;20372;-85
2023/05/20 04:16:12;;;;;;;;;;;11.20;99.90;;;;;;5032487;28;19917;-85
2023/05/20 04:18:44;;;;;;;;;;;11.20;99.90;;;;;;5028635;28;19913;-85
2023/05/20 04:21:10;;;;;;;;;;;11.20;99.90;;;;;;5035019;28;19913;-85
2023/05/20 04:23:36;;;;;;;;;;;11.20;99.90;;;;;;5029738;28;19909;-85
2023/05/20 04:26:02;;;;;;;;;;;11.30;99.90;;;;;;5032250;28;19909;-84
2023/05/20 04:28:30;;;;;;;;;;;11.30;99.90;;;;;;5021787;28;19913;-85
2023/05/20 04:31:01;;;;;;;;;;;11.40;99.90;;;;;;5021187;28;19916;-85
2023/05/20 04:33:27;;;;;;;;;;;11.40;99.90;;;;;;5023287;28;20050;-85
2023/05/20 04:35:57;;;;;;;;;;;11.50;99.90;;;;;;5020941;28;19935;-85
2023/05/20 04:38:36;;;;;;;;;;;11.50;99.90;;;;;;5029543;28;19913;-85
2023/05/20 04:41:02;;;;;;;;;;;11.50;99.90;;;;;;5020322;28;19909;-85
2023/05/20 04:43:32;;;;;;;;;;;11.50;99.90;;;;;;5036732;28;19913;-85
2023/05/20 04:46:04;;;;;;;;;;;11.60;99.90;;;;;;5002564;28;19909;-85
2023/05/20 04:48:36;;;;;;;;;;;11.60;99.90;;;;;;5027168;28;19967;-85
2023/05/20 04:51:02;;;;;;;;;;;11.60;99.90;;;;;;5015789;28;19952;-85
2023/05/20 04:53:30;;;;;;;;;;;11.70;99.90;;;;;;5014213;28;19913;-85
2023/05/20 04:55:55;;;;;;;;;;;11.80;99.90;;;;;;5014889;28;20327;-85
2023/05/20 04:58:23;;;;;;;;;;;11.80;99.90;;;;;;5023815;28;19920;-85
2023/05/20 05:00:50;;;;;;;;;;;11.90;99.90;;;;;;5031773;28;19916;-86
2023/05/20 05:03:16;;;;;;;;;;;11.90;99.90;;;;;;5038210;28;19909;-84
2023/05/20 05:05:42;;;;;;;;;;;12.00;99.90;;;;;;5015287;28;20273;-86
2023/05/20 05:08:08;;;;;;;;;;;12.10;99.90;;;;;;5023829;28;19916;-85
2023/05/20 05:10:38;;;;;;;;;;;12.10;99.90;;;;;;5025280;28;19913;-85
2023/05/20 05:13:04;;;;;;;;;;;12.20;99.90;;;;;;5011171;28;20268;-85
2023/05/20 05:18:58;;;;;;;;;;;12.40;99.90;;;;;;5032855;28;19973;-85
2023/05/20 05:21:29;;;;;;;;;;;12.60;99.90;;;;;;5030325;28;19909;-85
2023/05/20 05:23:54;;;;;;;;;;;12.80;99.90;;;;;;5035594;28;19959;-85
2023/05/20 05:26:21;;;;;;;;;;;12.90;99.90;;;;;;5009298;28;20419;-85
2023/05/20 05:28:46;;;;;;;;;;;13.00;99.90;;;;;;5043513;28;19915;-84
2023/05/20 05:31:21;;;;;;;;;;;13.20;99.90;;;;;;5027387;28;19950;-85
2023/05/20 05:33:47;;;;;;;;;;;13.30;99.90;;;;;;5016595;28;19963;-85
2023/05/20 05:36:13;;;;;;;;;;;13.50;99.90;;;;;;5021997;28;19933;-85
2023/05/20 05:38:39;;;;;;;;;;;13.60;99.90;;;;;;5035581;28;20344;-86
2023/05/20 05:41:05;;;;;;;;;;;13.50;99.90;;;;;;5035606;28;19960;-85
2023/05/20 05:43:33;;;;;;;;;;;13.40;99.90;;;;;;5032878;28;19913;-86
2023/05/20 05:46:00;;;;;;;;;;;13.30;99.90;;;;;;5028403;28;19936;-85
2023/05/20 05:48:26;;;;;;;;;;;13.20;99.90;;;;;;5018329;28;20357;-84
2023/05/20 05:50:51;;;;;;;;;;;13.20;99.90;;;;;;5037751;28;19914;-85
2023/05/20 05:53:19;;;;;;;;;;;13.10;99.90;;;;;;5048870;28;19908;-85
2023/05/20 05:55:47;;;;;;;;;;;13.20;99.90;;;;;;5035417;28;20573;-85
2023/05/20 05:58:13;;;;;;;;;;;13.30;99.90;;;;;;5027677;28;19963;-85
2023/05/20 06:00:39;;;;;;;;;;;13.50;99.90;;;;;;5026243;28;19909;-85
2023/05/20 06:03:04;;;;;;;;;;;13.70;99.90;;;;;;5027966;28;19916;-84
2023/05/20 06:05:34;;;;;;;;;;;13.70;99.90;;;;;;5041954;28;19905;-84
2023/05/20 06:07:59;;;;;;;;;;;13.80;99.90;;;;;;5004575;28;19917;-84
2023/05/20 06:10:25;;;;;;;;;;;13.80;99.90;;;;;;5027901;28;19952;-84
2023/05/20 06:12:51;;;;;;;;;;;13.70;99.90;;;;;;5020400;28;20227;-84
2023/05/20 06:15:17;;;;;;;;;;;13.80;99.90;;;;;;5043353;28;20601;-85
2023/05/20 06:17:43;;;;;;;;;;;13.70;99.90;;;;;;5032008;28;20695;-84
2023/05/20 06:20:09;;;;;;;;;;;13.70;99.90;;;;;;5025002;28;19912;-84
2023/05/20 06:22:35;;;;;;;;;;;13.60;99.90;;;;;;5034763;28;20671;-85
2023/05/20 06:25:01;;;;;;;;;;;13.50;99.90;;;;;;5008105;28;20272;-84
2023/05/20 06:27:29;;;;;;;;;;;13.50;99.90;;;;;;5033932;28;19906;-84
2023/05/20 06:29:54;;;;;;;;;;;13.50;99.90;;;;;;5029101;28;19924;-85
2023/05/20 06:32:20;;;;;;;;;;;13.40;99.90;;;;;;5026381;28;21086;-85
2023/05/20 06:34:46;;;;;;;;;;;13.30;99.90;;;;;;5028530;28;19909;-85
2023/05/20 06:37:12;;;;;;;;;;;13.30;99.90;;;;;;5037293;28;20693;-85
2023/05/20 06:39:37;;;;;;;;;;;13.20;99.90;;;;;;5039881;28;19921;-85
2023/05/20 06:42:03;;;;;;;;;;;13.30;99.90;;;;;;5031997;28;19913;-84
2023/05/20 06:44:34;;;;;;;;;;;13.40;99.90;;;;;;5047082;28;19909;-85
2023/05/20 06:47:10;;;;;;;;;;;13.30;99.90;;;;;;5028198;28;20283;-84
2023/05/20 06:49:36;;;;;;;;;;;13.40;99.90;;;;;;5025545;28;19920;-86
2023/05/20 06:52:02;;;;;;;;;;;13.60;99.90;;;;;;5024664;28;20349;-85
2023/05/20 06:54:28;;;;;;;;;;;13.90;99.90;;;;;;5029364;28;19910;-85
2023/05/20 06:56:54;;;;;;;;;;;14.30;99.90;;;;;;5046033;28;19916;-85
2023/05/20 06:59:20;;;;;;;;;;;14.80;99.90;;;;;;5024930;28;19920;-85
2023/05/20 07:01:46;;;;;;;;;;;15.30;99.90;;;;;;5048593;28;19920;-85
2023/05/20 07:04:12;;;;;;;;;;;15.60;99.90;;;;;;5033440;28;20288;-84
2023/05/20 07:06:38;;;;;;;;;;;15.60;99.90;;;;;;5017413;28;19914;-85
2023/05/20 07:09:04;;;;;;;;;;;15.50;99.90;;;;;;5022408;28;20003;-85
2023/05/20 07:11:31;;;;;;;;;;;15.30;99.90;;;;;;5032744;28;19916;-85
2023/05/20 07:13:57;;;;;;;;;;;15.20;99.90;;;;;;5029894;28;19932;-85
2023/05/20 07:16:24;;;;;;;;;;;15.10;99.90;;;;;;5031598;28;19909;-85
2023/05/20 07:18:53;;;;;;;;;;;15.10;99.90;;;;;;5026730;28;20000;-86
2023/05/20 07:21:18;;;;;;;;;;;14.90;99.90;;;;;;5046575;28;20322;-85
2023/05/20 07:23:55;;;;;;;;;;;14.70;99.90;;;;;;5034997;28;19910;-85
2023/05/20 07:26:21;;;;;;;;;;;14.90;99.90;;;;;;5027739;28;19913;-83
2023/05/20 07:28:47;;;;;;;;;;;15.00;99.90;;;;;;5023907;28;20003;-83
2023/05/20 07:31:12;;;;;;;;;;;15.10;99.90;;;;;;5028765;28;19913;-84
2023/05/20 07:33:42;;;;;;;;;;;15.20;99.90;;;;;;5023090;28;20722;-84
2023/05/20 07:36:08;;;;;;;;;;;15.20;99.90;;;;;;5044252;28;20281;-83
2023/05/20 07:38:35;;;;;;;;;;;15.20;99.90;;;;;;5028743;28;19913;-83
2023/05/20 07:41:05;;;;;;;;;;;15.20;99.90;;;;;;5032620;28;19909;-84
2023/05/20 07:43:32;;;;;;;;;;;15.10;99.90;;;;;;5022129;28;19956;-85
2023/05/20 07:45:58;;;;;;;;;;;15.40;99.90;;;;;;5022002;28;19944;-84
2023/05/20 07:48:24;;;;;;;;;;;16.30;99.90;;;;;;5028776;28;19912;-84
2023/05/20 07:50:49;;;;;;;;;;;17.30;99.90;;;;;;5026689;28;19913;-84
2023/05/20 07:53:17;;;;;;;;;;;17.70;99.90;;;;;;5044682;28;19932;-85
2023/05/20 07:55:43;;;;;;;;;;;18.30;99.90;;;;;;5029083;28;19913;-85
2023/05/20 07:58:08;;;;;;;;;;;19.10;99.90;;;;;;5026432;28;20626;-85
2023/05/20 08:00:34;;;;;;;;;;;20.20;99.90;;;;;;5028670;28;19909;-84
2023/05/20 08:03:03;;;;;;;;;;;20.30;99.90;;;;;;5041395;28;19920;-84
2023/05/20 08:05:40;;;;;;;;;;;20.70;99.90;;;;;;5017850;28;19939;-84
2023/05/20 08:08:05;;;;;;;;;;;21.30;99.90;;;;;;5018368;28;19963;-84
2023/05/20 08:10:43;;;;;;;;;;;21.70;99.90;;;;;;5005811;28;19944;-84
2023/05/20 08:13:08;;;;;;;;;;;21.70;99.90;;;;;;5021198;28;20311;-84
2023/05/20 08:15:34;;;;;;;;;;;21.30;99.90;;;;;;5025938;28;19916;-84
2023/05/20 08:18:00;;;;;;;;;;;21.80;99.90;;;;;;5029723;28;19920;-84
2023/05/20 08:20:25;;;;;;;;;;;22.00;99.90;;;;;;5023993;28;19966;-84
2023/05/20 08:22:51;;;;;;;;;;;22.50;99.90;;;;;;5025896;28;20341;-85
2023/05/20 08:25:17;;;;;;;;;;;22.50;99.90;;;;;;5030911;28;20322;-85
2023/05/20 08:27:43;;;;;;;;;;;22.60;99.90;;;;;;5029823;28;19917;-85
2023/05/20 08:30:10;;;;;;;;;;;22.80;99.90;;;;;;5028671;28;19952;-85
2023/05/20 08:35:43;;;;;;;;;;;22.80;99.90;;;;;;5027951;28;19914;-85
2023/05/20 08:38:17;;;;;;;;;;;23.30;99.90;;;;;;5020549;28;19928;-85
2023/05/20 08:40:43;;;;;;;;;;;23.50;99.90;;;;;;5030802;28;20267;-84
2023/05/20 08:43:09;;;;;;;;;;;23.30;99.90;;;;;;5026605;28;19908;-84
2023/05/20 08:45:36;;;;;;;;;;;23.50;99.90;;;;;;5027532;28;19909;-84
2023/05/20 08:48:06;;;;;;;;;;;23.40;99.90;;;;;;5022312;28;20277;-84
2023/05/20 08:50:32;;;;;;;;;;;23.50;99.90;;;;;;5031013;28;19909;-84
2023/05/20 08:56:26;;;;;;;;;;;21.80;99.90;;;;;;5030076;28;20390;-84
2023/05/20 08:58:52;;;;;;;;;;;22.30;99.90;;;;;;5027996;28;20012;-85
2023/05/20 09:01:18;;;;;;;;;;;22.20;99.90;;;;;;5028723;28;19909;-85
2023/05/20 09:03:44;;;;;;;;;;;22.60;99.90;;;;;;5026861;28;19909;-85
2023/05/20 09:06:09;;;;;;;;;;;22.40;99.90;;;;;;5029964;28;20273;-84
2023/05/20 09:08:36;;;;;;;;;;;22.30;99.90;;;;;;5024293;28;20015;-84
2023/05/20 09:11:01;;;;;;;;;;;22.40;99.90;;;;;;5041570;28;19935;-84
2023/05/20 09:13:29;;;;;;;;;;;23.30;99.90;;;;;;5032361;28;20368;-85
2023/05/20 09:15:55;;;;;;;;;;;24.30;99.90;;;;;;5049107;28;19909;-87
2023/05/20 09:18:30;;;;;;;;;;;24.40;99.00;;;;;;5018113;28;19928;-85
2023/05/20 09:20:56;;;;;;;;;;;22.90;99.20;;;;;;5020542;28;19909;-86
2023/05/20 09:23:21;;;;;;;;;;;22.60;99.90;;;;;;5033310;28;19916;-86
2023/05/20 09:25:53;;;;;;;;;;;23.50;99.90;;;;;;5032597;28;19909;-86
2023/05/20 09:28:19;;;;;;;;;;;24.00;98.30;;;;;;5030999;28;19908;-86
2023/05/20 09:30:47;;;;;;;;;;;24.20;98.50;;;;;;5033196;28;20004;-86
2023/05/20 09:33:13;;;;;;;;;;;23.80;98.80;;;;;;5019445;28;19952;-86
2023/05/20 09:35:39;;;;;;;;;;;23.30;99.40;;;;;;5026393;28;19909;-86
2023/05/20 09:38:11;;;;;;;;;;;23.30;98.70;;;;;;5022979;28;19906;-86
2023/05/20 09:40:37;;;;;;;;;;;22.80;99.30;;;;;;5033414;28;20020;-87
2023/05/20 09:43:04;;;;;;;;;;;22.10;99.90;;;;;;5031389;28;19921;-86
2023/05/20 09:45:29;;;;;;;;;;;22.10;99.90;;;;;;5024270;28;19893;-86
2023/05/20 09:47:55;;;;;;;;;;;22.60;99.90;;;;;;5021297;28;19910;-86
2023/05/20 09:50:22;;;;;;;;;;;22.70;99.90;;;;;;5027701;28;19932;-87
2023/05/20 09:52:54;;;;;;;;;;;21.90;99.90;;;;;;5033063;28;19984;-86
2023/05/20 09:55:21;;;;;;;;;;;20.70;99.90;;;;;;5034514;28;19913;-86
2023/05/20 09:57:47;;;;;;;;;;;20.30;99.90;;;;;;5018799;28;19916;-86
2023/05/20 10:00:16;;;;;;;;;;;20.00;99.90;;;;;;5025652;28;20296;-86
2023/05/20 10:02:47;;;;;;;;;;;20.40;99.90;;;;;;5019642;28;19913;-86
2023/05/20 10:05:18;;;;;;;;;;;20.30;99.90;;;;;;5025412;28;19909;-87
2023/05/20 10:07:56;;;;;;;;;;;20.10;99.90;;;;;;5003617;28;20008;-88
2023/05/20 10:10:37;;;;;;;;;;;19.60;99.90;;;;;;5029638;28;19918;-87
2023/05/20 10:13:18;;;;;;;;;;;19.40;99.90;;;;;;5041764;28;20357;-86
2023/05/20 10:15:47;;;;;;;;;;;20.00;99.90;;;;;;5013892;28;19909;-87
2023/05/20 10:18:22;;;;;;;;;;;20.60;99.90;;;;;;5029328;28;20288;-86
2023/05/20 10:20:48;;;;;;;;;;;20.20;99.90;;;;;;5030537;28;20495;-87
2023/05/20 10:23:21;;;;;;;;;;;19.50;99.90;;;;;;5020675;28;19928;-87
2023/05/20 10:26:06;;;;;;;;;;;19.50;99.90;;;;;;5019401;28;19960;-87
2023/05/20 10:28:43;;;;;;;;;;;20.10;99.90;;;;;;5021050;28;20296;-86
2023/05/20 10:31:21;;;;;;;;;;;21.10;99.90;;;;;;5030177;28;19910;-86
2023/05/20 10:33:48;;;;;;;;;;;22.00;99.90;;;;;;5025422;28;19915;-85
2023/05/20 10:36:26;;;;;;;;;;;21.70;99.90;;;;;;5034664;28;19923;-87
2023/05/20 10:38:56;;;;;;;;;;;21.30;99.90;;;;;;5024608;28;19917;-87
2023/05/20 10:41:26;;;;;;;;;;;21.40;99.90;;;;;;5030323;28;19932;-86
2023/05/20 10:43:58;;;;;;;;;;;21.50;99.90;;;;;;5047312;28;20540;-86
2023/05/20 10:46:24;;;;;;;;;;;21.50;99.90;;;;;;5044930;28;19932;-87
2023/05/20 10:48:50;;;;;;;;;;;22.30;99.90;;;;;;5031161;28;19908;-87
2023/05/20 10:51:27;;;;;;;;;;;22.80;99.90;;;;;;5032715;28;19952;-86
2023/05/20 10:53:54;;;;;;;;;;;23.40;99.90;;;;;;5044562;28;19972;-86
2023/05/20 10:56:22;;;;;;;14.70;9.23;;;23.80;99.90;;;;;;5028642;28;20333;-86
2023/05/20 10:58:49;;;;;;;13.02;8.43;;;23.30;99.90;;;;;;5014637;28;20042;-86
2023/05/20 11:01:17;;;;;;;11.93;7.95;;;22.40;99.90;;;;;;5036961;28;20025;-86
2023/05/20 11:03:45;;;;;;;14.75;8.50;;;21.90;99.90;;;;;;5018685;28;20022;-86
2023/05/20 11:06:12;;;;;;;16.25;7.60;;;21.80;99.90;;;;;;5039886;28;20034;-86
2023/05/20 11:08:38;;;;;;;14.27;8.75;;;21.60;99.90;;;;;;5036103;28;20160;-85
2023/05/20 11:11:04;;;;;;;12.23;8.52;;;21.50;99.90;;;;;;5023689;28;20450;-86
2023/05/20 11:13:30;;;;;;;15.55;8.75;;;21.50;99.90;;;;;;5045505;28;20025;-86
2023/05/20 11:16:21;;;;;;;11.65;8.32;;;21.50;99.90;;;;;;5030406;28;20374;-85
2023/05/20 11:18:50;;;;;;;10.10;7.65;;;21.50;99.90;;;;;;5031772;28;20130;-86
2023/05/20 11:21:16;;;;;;;10.70;8.70;;;21.80;99.90;;;;;;5030583;28;20037;-86
2023/05/20 11:23:42;;;;;;;10.02;7.68;;;22.30;99.90;;;;;;5032419;28;20022;-87
2023/05/20 11:26:39;;;;;;;9.30;7.50;;;23.10;99.90;;;;;;5034356;28;20112;-86
2023/05/20 11:29:11;;;;;;;12.02;7.43;;;23.80;99.90;;;;;;5046934;28;20030;-87
2023/05/20 11:31:38;;;;;;;9.63;7.10;;;23.70;99.90;;;;;;5032503;28;20370;-88
2023/05/20 11:34:35;;;;;;;9.73;7.43;;;24.40;99.90;;;;;;5023224;28;20040;-86
2023/05/20 11:37:08;;;;;;;9.30;7.95;;;24.70;99.60;;;;;;5030723;28;20120;-86
2023/05/20 11:39:33;;;;;;;10.73;8.45;;;24.40;98.60;;;;;;5044523;28;20025;-87
2023/05/20 11:41:59;;;;;;;10.45;8.18;;;23.80;99.50;;;;;;5021698;28;20062;-87
2023/05/20 11:44:25;;;;;;;15.10;7.53;;;23.10;99.10;;;;;;5030624;28;20048;-86
2023/05/20 11:46:58;;;;;;;12.68;8.18;;;22.30;99.90;;;;;;5045563;28;20036;-86
2023/05/20 11:49:39;;;;;;;12.13;8.02;;;21.80;99.90;;;;;;5015977;28;20035;-86
2023/05/20 11:52:06;;;;;;;;;;;22.00;99.90;;;;;;5031394;28;20425;-86
2023/05/20 11:54:35;;;;;;;9.52;7.88;;;22.10;99.90;;;;;;5022180;28;20589;-86
2023/05/20 11:57:01;;;;;;;9.32;7.57;;;22.40;99.90;;;;;;5028329;28;20034;-87
2023/05/20 11:59:28;;;;;;;13.05;8.35;;;22.80;99.90;;;;;;5029109;28;20029;-86
2023/05/20 12:01:53;;;;;;;9.23;7.63;;;22.70;99.90;;;;;;5039519;28;20111;-88
2023/05/20 12:04:19;;;;;;;9.77;7.85;;;22.80;99.90;;;;;;5043583;28;20036;-85
2023/05/20 12:06:45;;;;;;;8.88;7.13;;;22.60;99.90;;;;;;5031190;28;20033;-86
2023/05/20 12:09:12;;;;;;;9.77;7.78;;;22.60;99.90;;;;;;5027053;28;20041;-86
2023/05/20 12:11:43;;;;;;;9.77;7.53;;;22.60;99.90;;;;;;5026325;28;20038;-86
2023/05/20 12:14:09;;;;;;;9.70;7.32;;;22.30;99.90;;;;;;5031677;28;20064;-87
2023/05/20 12:16:36;;;;;;;10.93;8.00;;;22.50;99.90;;;;;;5029854;28;20071;-87
2023/05/20 12:19:02;;;;;;;9.55;7.57;;;22.80;99.90;;;;;;5031875;28;20113;-86
2023/05/20 12:21:28;;;;;;;10.50;7.68;;;22.70;99.90;;;;;;5024115;28;20056;-86
2023/05/20 12:23:57;;;;;;;9.18;8.13;;;22.30;99.90;;;;;;5041236;28;20021;-86
2023/05/20 12:26:25;;;;;;;12.57;8.40;;;22.00;99.90;;;;;;5032009;28;20057;-87
2023/05/20 12:32:57;;;;;;;11.52;7.80;;;22.60;99.90;;;;;;5014346;28;20121;-86
2023/05/20 12:35:40;;;;;;;15.55;7.38;;;23.30;99.90;;;;;;5028713;28;20030;-87
2023/05/20 12:38:09;;;;;;;12.35;7.63;;;24.50;98.70;;;;;;5014511;28;20034;-87
2023/05/20 12:40:35;;;;;;;9.43;7.53;;;24.90;98.50;;;;;;5012302;28;20037;-92
2023/05/20 12:43:07;;;;;;;11.52;8.07;;;24.20;96.90;;;;;;5002321;28;20038;-89
2023/05/20 12:45:53;;;;;;;;;;;;;;;;;;;;;
2023/05/20 12:48:19;;;;;;;7.63;6.57;;;23.50;98.40;;;;;;5035458;28;20548;-89
2023/05/20 12:50:45;;;;;;;;;;;24.60;97.00;;;;;;5027887;28;20030;-86
2023/05/20 12:53:10;;;;;;;;;;;24.80;97.60;;;;;;5032464;28;20003;-85
2023/05/20 12:55:37;;;;;;;;;;;24.30;97.70;;;;;;5014665;28;19909;-93
2023/05/20 12:58:03;;;;;;;;;;;24.20;98.30;;;;;;5022350;28;20419;-90
2023/05/20 13:00:33;;;;;;;;;;;23.90;97.10;;;;;;5029002;28;19913;-91
2023/05/20 13:02:59;;;;;;;;;;;24.20;97.80;;;;;;5028767;28;20415;-91
2023/05/20 13:05:25;;;;;;;;;;;23.70;98.70;;;;;;5015502;28;19954;-91
2023/05/20 13:07:51;;;;;;;;;;;24.20;98.90;;;;;;5023116;28;20368;-91
2023/05/20 13:10:19;;;;;;;;;;;25.00;97.20;;;;;;5018095;28;19913;-92
2023/05/20 13:12:45;;;;;;;;;;;25.30;95.70;;;;;;5030467;28;20564;-81
2023/05/20 13:15:12;;;;;;;;;;;25.90;95.20;;;;;;5030605;28;19971;-89
2023/05/20 13:17:44;;;;;;;;;;;24.80;95.90;;;;;;5038708;28;19952;-89
2023/05/20 13:20:10;;;;;;;;;;;23.80;98.00;;;;;;5024148;28;20320;-90
2023/05/20 13:22:44;;;;;;;;;;;22.70;99.30;;;;;;5030770;28;19905;-90
2023/05/20 13:25:10;;;;;;;;;;;22.80;99.90;;;;;;5035703;28;19939;-91
2023/05/20 13:27:36;;;;;;;;;;;23.20;99.60;;;;;;5034924;28;19909;-91
2023/05/20 13:30:02;;;;;;;;;;;23.60;99.80;;;;;;5015483;28;19968;-90
2023/05/20 13:32:28;;;;;;;;;;;23.80;98.90;;;;;;5029425;28;20316;-92
2023/05/20 13:34:55;;;;;;;;;;;23.50;98.60;;;;;;5029396;28;19913;-91
2023/05/20 13:37:21;;;;;;;;;;;23.50;99.40;;;;;;5016796;28;19924;-89
2023/05/20 13:39:50;;;;;;;;;;;23.40;99.70;;;;;;5043903;28;19909;-92
2023/05/20 13:42:16;;;;;;;;;;;23.20;99.70;;;;;;5034843;28;19952;-90
2023/05/20 13:44:42;;;;;;;;;;;22.90;99.90;;;;;;5038565;28;19913;-91
2023/05/20 13:47:10;;;;;;;;;;;22.30;99.90;;;;;;5022012;28;19960;-90
2023/05/20 13:49:36;;;;;;;;;;;22.10;99.90;;;;;;5039870;28;19916;-90
2023/05/20 13:52:02;;;;;;;;;;;22.00;99.90;;;;;;5030107;28;20542;-90
2023/05/20 13:54:30;;;;;;;;;;;22.00;99.90;;;;;;5048484;28;19909;-90
2023/05/20 13:56:56;;;;;;;;;;;22.30;99.90;;;;;;5034855;28;19916;-91
2023/05/20 13:59:27;;;;;;;;;;;22.50;99.90;;;;;;5035280;28;19913;-92
2023/05/20 14:01:53;;;;;;;;;;;22.50;99.90;;;;;;5027384;28;20376;-91
2023/05/20 14:07:47;;;;;;;;;;;22.30;99.90;;;;;;5033697;28;19932;-88
2023/05/20 14:10:13;;;;;;;13.02;9.73;;;21.90;99.90;;;;;;5033461;28;19913;-87
2023/05/20 14:12:41;;;;;;;14.18;9.38;;;21.70;99.90;;;;;;5018131;28;20061;-82
2023/05/20 14:15:07;;;;;;;15.13;10.43;;;21.70;99.90;;;;;;5016145;28;20756;-80
2023/05/20 14:17:33;;;;;;;11.88;10.05;;;21.70;99.90;;;;;;5036899;28;20091;-79
2023/05/20 14:19:59;;;;;;;17.08;10.65;;;21.90;99.90;;;;;;5023016;28;20473;-80
2023/05/20 14:22:25;;;;;;;11.50;9.30;;;21.90;99.90;;;;;;5024727;28;20022;-80